YPWR

Details ICAO YPWR (UMR)
Name Woomera
Region Australia
Timezone Australia/Adelaide (UTC+10.5)
Plans Departing 4
Arriving 3
Stats Elevation 548 ft / 167 m (AMSL)
Location -31.142978° 136.816801°
Runways 2
Magnetic Variation 6.531° E
Sunrise 2017-12-12 19:43:57 UTC / 2017-12-13 06:13:57 Local
Sunset 2017-12-13 09:52:25 UTC / 2017-12-13 20:22:25 Local
Advertisement - Login to hide

Runways

ID Width Length Bearing (true) Bearing (mag) Surface Threshold Offset Overrun Length
12 164 ft / 50 m 6,089 ft / 1,856 m 125.40° 118.87° Unknown 0 ft / 0 m 0 ft / 0 m
18 148 ft / 45 m 7,814 ft / 2,382 m 185.81° 179.28° Asphalt 0 ft / 0 m 194 ft / 59 m
30 164 ft / 50 m 6,089 ft / 1,856 m 305.40° 298.87° Unknown 0 ft / 0 m 0 ft / 0 m
36 148 ft / 45 m 7,814 ft / 2,382 m 5.81° 359.28° Asphalt 0 ft / 0 m 207 ft / 63 m

Map

Weather


0- 5 10 15 20 25 30 35+ Temperature / ° C

Clouds and Precipitation
Forecast for 2017-12-13 00:00 UTC. Updated 24 minutes ago

Ground ~20,000 ft ~40,000 ft Winds

METAR

YPWR 122100Z AUTO 03010KT 9999 // NCD 29/01 Q1006

TAF

TAF YPWR 121645Z 1218/1312 05010KT CAVOK FM122200 01018KT CAVOK FM130200 30018KT CAVOK FM130600 25016KT 9999 -SHRA NSC FM131000 22014KT 9999 -SHRA NSC

Frequencies

Unicom 118.30 MHz CTAF
Tower 118.30 MHz TWR
Warning: Do not use this data for real-world aviation or navigation. No guarantee of current accuracy is given.